createdAt,value
2023-05-13T00:00:07.939Z,16.20
2023-05-13T00:02:34.888Z,16.10
2023-05-13T00:05:01.848Z,16.10
2023-05-13T00:07:28.849Z,16.10
2023-05-13T00:09:55.811Z,16.10
2023-05-13T00:12:23.107Z,16.10
2023-05-13T00:14:49.911Z,16.00
2023-05-13T00:17:17.214Z,16.00
2023-05-13T00:19:44.038Z,16.00
2023-05-13T00:22:11.502Z,15.90
2023-05-13T00:24:38.388Z,15.90
2023-05-13T00:27:05.444Z,15.90
2023-05-13T00:29:32.361Z,15.90
2023-05-13T00:31:59.463Z,15.90
2023-05-13T00:34:26.692Z,15.90
2023-05-13T00:36:54.952Z,15.80
2023-05-13T00:39:23.127Z,15.80
2023-05-13T00:41:49.963Z,15.80
2023-05-13T00:44:16.772Z,15.80
2023-05-13T00:46:45.094Z,15.70
2023-05-13T00:49:12.294Z,15.70
2023-05-13T00:51:39.264Z,15.70
2023-05-13T00:54:06.555Z,15.70
2023-05-13T00:56:33.515Z,15.70
2023-05-13T00:59:00.293Z,15.70
2023-05-13T01:01:44.595Z,15.70
2023-05-13T01:04:27.558Z,15.70
2023-05-13T01:07:34.401Z,15.70
2023-05-13T01:10:09.099Z,15.60
2023-05-13T01:12:40.221Z,15.60
2023-05-13T01:15:17.371Z,15.60
2023-05-13T01:17:56.094Z,15.50
2023-05-13T01:20:24.794Z,15.50
2023-05-13T01:22:51.562Z,15.50
2023-05-13T01:25:19.036Z,15.40
2023-05-13T01:27:46.087Z,15.50
2023-05-13T01:30:13.967Z,15.50
2023-05-13T01:32:41.027Z,15.40
2023-05-13T01:35:11.480Z,15.40
2023-05-13T01:37:40.054Z,15.30
2023-05-13T01:40:28.220Z,15.40
2023-05-13T01:42:54.933Z,15.30
2023-05-13T01:45:21.779Z,15.30
2023-05-13T01:47:49.365Z,15.30
2023-05-13T01:50:17.272Z,15.30
2023-05-13T01:52:44.420Z,15.30
2023-05-13T01:55:12.049Z,15.30
2023-05-13T01:57:40.479Z,15.30
2023-05-13T02:00:08.276Z,15.20
2023-05-13T02:05:03.011Z,15.20
2023-05-13T02:07:29.821Z,15.10
2023-05-13T02:10:00.625Z,15.10
2023-05-13T02:12:29.258Z,15.00
2023-05-13T02:14:56.113Z,15.00
2023-05-13T02:17:23.851Z,15.00
2023-05-13T02:19:50.813Z,15.00
2023-05-13T02:22:17.613Z,15.00
2023-05-13T02:24:45.888Z,15.00
2023-05-13T02:27:16.171Z,15.00
2023-05-13T02:29:44.136Z,15.00
2023-05-13T02:32:12.352Z,15.00
2023-05-13T02:34:42.991Z,15.00
2023-05-13T02:37:09.826Z,15.00
2023-05-13T02:39:36.632Z,14.90
2023-05-13T02:42:03.580Z,14.90
2023-05-13T02:44:30.423Z,14.90
2023-05-13T02:46:57.476Z,14.90
2023-05-13T02:49:25.987Z,14.90
2023-05-13T02:51:52.872Z,14.80
2023-05-13T02:54:19.779Z,14.70
2023-05-13T02:56:48.242Z,14.60
2023-05-13T02:59:15.077Z,14.50
2023-05-13T03:01:42.035Z,14.50
2023-05-13T03:04:09.266Z,14.50
2023-05-13T03:06:36.030Z,14.40
2023-05-13T03:09:03.556Z,14.40
2023-05-13T03:11:30.799Z,14.40
2023-05-13T03:13:57.618Z,14.40
2023-05-13T03:16:24.565Z,14.40
2023-05-13T03:18:52.579Z,14.30
2023-05-13T03:21:19.488Z,14.30
2023-05-13T03:23:47.633Z,14.20
2023-05-13T03:28:41.989Z,14.30
2023-05-13T03:31:09.118Z,14.20
2023-05-13T03:33:36.574Z,14.00
2023-05-13T03:43:13.930Z,14.10
2023-05-13T03:45:40.820Z,14.20
2023-05-13T03:48:07.816Z,14.20
2023-05-13T03:50:36.207Z,14.20
2023-05-13T03:53:03.950Z,14.30
2023-05-13T03:55:32.191Z,14.30
2023-05-13T03:58:00.229Z,14.30
2023-05-13T04:00:31.978Z,14.20
2023-05-13T04:02:58.823Z,14.20
2023-05-13T04:05:27.393Z,14.40
2023-05-13T04:07:54.196Z,14.30
2023-05-13T04:10:21.322Z,14.30
2023-05-13T04:12:49.454Z,14.30
2023-05-13T04:15:17.648Z,14.30
2023-05-13T04:17:44.703Z,14.20
2023-05-13T04:20:11.906Z,14.50
2023-05-13T04:22:38.736Z,14.20
2023-05-13T04:25:06.004Z,13.90
2023-05-13T04:27:35.017Z,14.00
2023-05-13T04:30:03.622Z,13.90
2023-05-13T04:32:32.080Z,13.90
2023-05-13T04:34:59.417Z,13.90
2023-05-13T04:37:26.581Z,13.90
2023-05-13T04:39:53.653Z,14.00
2023-05-13T04:42:21.637Z,14.00
2023-05-13T04:44:48.428Z,14.00
2023-05-13T04:47:18.035Z,14.00
2023-05-13T04:49:44.889Z,14.10
2023-05-13T04:52:13.319Z,14.10
2023-05-13T04:54:40.403Z,14.10
2023-05-13T04:57:07.332Z,14.10
2023-05-13T04:59:35.741Z,14.00
2023-05-13T05:02:02.876Z,14.00
2023-05-13T05:04:29.783Z,14.10
2023-05-13T05:06:57.103Z,14.20
2023-05-13T05:09:24.015Z,14.20
2023-05-13T05:11:51.203Z,14.20
2023-05-13T05:14:18.144Z,14.20
2023-05-13T05:16:46.190Z,14.20
2023-05-13T05:19:14.723Z,14.20
2023-05-13T05:21:44.204Z,14.30
2023-05-13T05:24:12.329Z,14.40
2023-05-13T05:26:41.084Z,14.50
2023-05-13T05:29:09.176Z,14.50
2023-05-13T05:31:36.223Z,14.60
2023-05-13T05:34:03.217Z,14.70
2023-05-13T05:36:30.218Z,14.60
2023-05-13T05:38:59.083Z,14.70
2023-05-13T05:43:53.243Z,14.90
2023-05-13T05:46:20.201Z,15.00
2023-05-13T05:48:47.899Z,15.00
2023-05-13T05:51:14.924Z,15.10
2023-05-13T05:53:43.577Z,15.30
2023-05-13T05:56:10.461Z,15.40
2023-05-13T05:58:39.177Z,15.50
2023-05-13T06:01:06.505Z,15.50
2023-05-13T06:03:33.642Z,15.70
2023-05-13T06:06:01.073Z,15.80
2023-05-13T06:08:30.506Z,15.90
2023-05-13T06:11:00.430Z,16.00
2023-05-13T06:13:27.310Z,16.20
2023-05-13T06:15:54.227Z,16.40
2023-05-13T06:18:21.669Z,16.50
2023-05-13T06:20:48.533Z,16.60
2023-05-13T06:23:15.373Z,16.80
2023-05-13T06:25:42.373Z,16.90
2023-05-13T06:28:26.181Z,17.00
2023-05-13T06:30:54.663Z,17.20
2023-05-13T06:33:24.144Z,17.30
2023-05-13T06:35:51.879Z,17.40
2023-05-13T06:38:20.020Z,17.50
2023-05-13T06:40:46.979Z,17.60
2023-05-13T06:43:15.218Z,17.80
2023-05-13T06:45:42.820Z,17.90
2023-05-13T06:48:09.858Z,18.00
2023-05-13T06:50:37.546Z,18.10
2023-05-13T06:53:04.466Z,18.30
2023-05-13T06:55:31.674Z,18.40
2023-05-13T06:57:58.503Z,18.60
2023-05-13T07:00:26.975Z,19.10
2023-05-13T07:02:53.813Z,19.10
2023-05-13T07:05:20.998Z,19.10
2023-05-13T07:07:56.180Z,19.00
2023-05-13T07:10:23.458Z,19.10
2023-05-13T07:12:51.143Z,19.20
2023-05-13T07:15:18.198Z,19.30
2023-05-13T07:17:45.148Z,19.50
2023-05-13T07:20:13.324Z,19.60
2023-05-13T07:22:40.225Z,19.70
2023-05-13T07:25:07.350Z,19.80
2023-05-13T07:27:35.618Z,19.90
2023-05-13T07:30:02.600Z,20.10
2023-05-13T07:32:32.954Z,20.20
2023-05-13T07:35:01.395Z,20.40
2023-05-13T07:37:28.249Z,20.50
2023-05-13T07:42:24.440Z,20.70
2023-05-13T07:44:51.306Z,20.90
2023-05-13T07:47:19.780Z,20.90
2023-05-13T07:49:46.721Z,21.00
2023-05-13T07:52:13.544Z,21.20
2023-05-13T07:54:41.674Z,21.40
2023-05-13T07:57:08.653Z,21.40
2023-05-13T07:59:35.785Z,21.50
2023-05-13T08:02:02.805Z,21.60
2023-05-13T08:04:29.866Z,21.80
2023-05-13T08:06:58.230Z,21.70
2023-05-13T08:09:25.094Z,21.70
2023-05-13T08:11:51.937Z,21.80
2023-05-13T08:14:18.732Z,22.00
2023-05-13T08:16:45.858Z,22.10
2023-05-13T08:19:14.860Z,22.20
2023-05-13T08:21:42.050Z,22.40
2023-05-13T08:24:08.959Z,22.50
2023-05-13T08:26:35.871Z,22.40
2023-05-13T08:29:02.935Z,22.60
2023-05-13T08:31:30.790Z,22.70
2023-05-13T08:33:57.927Z,22.80
2023-05-13T08:36:27.081Z,23.00
2023-05-13T08:38:54.015Z,23.00
2023-05-13T08:41:22.978Z,23.00
2023-05-13T08:43:52.264Z,23.10
2023-05-13T08:46:20.274Z,23.20
2023-05-13T08:48:48.119Z,23.20
2023-05-13T08:51:16.134Z,23.30
2023-05-13T08:53:45.862Z,23.30
2023-05-13T08:56:13.629Z,23.40
2023-05-13T09:01:08.310Z,23.60
2023-05-13T09:03:36.156Z,23.70
2023-05-13T09:06:03.820Z,23.80
2023-05-13T09:08:32.316Z,23.90
2023-05-13T09:11:01.107Z,24.00
2023-05-13T09:13:31.169Z,24.20
2023-05-13T09:15:59.821Z,24.30
2023-05-13T09:18:32.363Z,24.40
2023-05-13T09:21:19.510Z,24.30
2023-05-13T09:23:46.368Z,24.20
2023-05-13T09:26:30.583Z,24.30
2023-05-13T09:29:14.532Z,24.40
2023-05-13T09:31:41.653Z,24.50
2023-05-13T09:36:37.340Z,24.80
2023-05-13T09:39:06.035Z,24.90
2023-05-13T09:44:03.190Z,25.00
2023-05-13T09:46:32.568Z,25.20
2023-05-13T09:48:59.488Z,25.20
2023-05-13T09:51:27.700Z,25.20
2023-05-13T09:54:03.232Z,25.20
2023-05-13T09:56:32.195Z,25.20
2023-05-13T09:58:59.095Z,25.20
2023-05-13T10:01:28.702Z,25.30
2023-05-13T10:03:59.667Z,25.30
2023-05-13T10:06:28.444Z,25.50
2023-05-13T10:08:58.631Z,25.60
2023-05-13T10:11:28.130Z,25.50
2023-05-13T10:14:00.589Z,25.50
2023-05-13T10:16:29.313Z,25.50
2023-05-13T10:19:00.437Z,25.50
2023-05-13T10:21:28.181Z,25.50
2023-05-13T10:23:57.147Z,25.50
2023-05-13T10:26:25.386Z,25.50
2023-05-13T10:28:53.484Z,25.40
2023-05-13T10:31:20.444Z,25.40
2023-05-13T10:33:47.483Z,25.50
2023-05-13T10:36:42.720Z,25.50
2023-05-13T10:39:30.928Z,25.50
2023-05-13T10:42:09.761Z,25.60
2023-05-13T10:44:39.083Z,25.50
2023-05-13T10:47:11.832Z,25.50
2023-05-13T10:49:39.825Z,25.40
2023-05-13T10:52:12.763Z,25.30
2023-05-13T10:54:42.303Z,25.10
2023-05-13T10:57:09.939Z,25.00
2023-05-13T10:59:39.322Z,25.00
2023-05-13T11:02:23.595Z,25.00
2023-05-13T11:05:02.496Z,24.90
2023-05-13T11:07:30.836Z,24.90
2023-05-13T11:09:59.975Z,24.90
2023-05-13T11:12:27.933Z,25.00
2023-05-13T11:14:58.839Z,25.00
2023-05-13T11:17:26.122Z,24.90
2023-05-13T11:19:53.538Z,24.90
2023-05-13T11:22:22.320Z,24.80
2023-05-13T11:25:10.200Z,24.80
2023-05-13T11:27:42.300Z,24.70
2023-05-13T11:30:26.762Z,24.60
2023-05-13T11:32:59.231Z,24.40
2023-05-13T11:35:28.433Z,24.00
2023-05-13T11:37:58.345Z,23.80
2023-05-13T11:40:31.720Z,23.50
2023-05-13T11:43:01.578Z,23.20
2023-05-13T11:45:29.832Z,22.10
2023-05-13T11:48:00.212Z,21.50
2023-05-13T11:50:33.290Z,20.70
2023-05-13T11:53:04.384Z,20.40
2023-05-13T11:55:34.690Z,20.20
2023-05-13T11:58:02.244Z,20.00
2023-05-13T12:00:31.183Z,20.10
2023-05-13T12:02:59.331Z,20.10
2023-05-13T12:05:27.112Z,20.10
2023-05-13T12:07:58.622Z,20.10
2023-05-13T12:10:26.488Z,20.00
2023-05-13T12:12:53.814Z,19.80
2023-05-13T12:15:22.201Z,19.70
2023-05-13T12:17:49.980Z,19.50
2023-05-13T12:20:22.105Z,19.50
2023-05-13T12:22:49.812Z,19.30
2023-05-13T12:25:35.952Z,19.30
2023-05-13T12:28:17.751Z,19.30
2023-05-13T12:30:57.075Z,19.30
2023-05-13T12:33:26.431Z,19.30
2023-05-13T12:35:55.219Z,19.20
2023-05-13T12:38:25.230Z,19.10
2023-05-13T12:40:53.611Z,18.90
2023-05-13T12:43:20.979Z,18.80
2023-05-13T12:45:53.066Z,18.80
2023-05-13T12:48:23.615Z,18.90
2023-05-13T12:50:51.981Z,18.90
2023-05-13T12:53:18.881Z,19.00
2023-05-13T12:55:45.829Z,19.00
2023-05-13T12:58:13.462Z,19.00
2023-05-13T13:00:40.680Z,19.10
2023-05-13T13:03:08.346Z,19.00
2023-05-13T13:05:36.417Z,19.00
2023-05-13T13:08:05.509Z,19.00
2023-05-13T13:10:32.472Z,19.10
2023-05-13T13:12:59.361Z,19.10
2023-05-13T13:15:26.263Z,19.10
2023-05-13T13:17:53.368Z,19.20
2023-05-13T13:20:20.187Z,19.10
2023-05-13T13:22:47.200Z,19.20
2023-05-13T13:25:14.045Z,19.20
2023-05-13T13:27:40.854Z,19.10
2023-05-13T13:30:08.239Z,19.10
2023-05-13T13:32:37.993Z,19.10
2023-05-13T13:35:05.790Z,19.10
2023-05-13T13:37:32.710Z,19.20
2023-05-13T13:39:59.686Z,19.20
2023-05-13T13:42:40.183Z,19.20
2023-05-13T13:45:11.389Z,19.20
2023-05-13T13:47:38.667Z,19.30
2023-05-13T13:50:06.666Z,19.30
2023-05-13T13:52:33.572Z,19.30
2023-05-13T13:55:00.736Z,19.40
2023-05-13T13:57:27.684Z,19.40
2023-05-13T13:59:54.696Z,19.30
2023-05-13T14:02:22.260Z,19.30
2023-05-13T14:04:49.129Z,19.40
2023-05-13T14:07:16.114Z,19.40
2023-05-13T14:09:42.995Z,19.50
2023-05-13T14:12:11.502Z,19.60
2023-05-13T14:14:38.367Z,19.60
2023-05-13T14:17:05.476Z,19.70
2023-05-13T14:19:32.627Z,19.70
2023-05-13T14:21:59.566Z,19.70
2023-05-13T14:24:27.779Z,19.80
2023-05-13T14:26:55.025Z,19.80
2023-05-13T14:29:21.942Z,19.80
2023-05-13T14:31:49.049Z,19.90
2023-05-13T14:34:16.720Z,19.90
2023-05-13T14:36:43.771Z,19.90
2023-05-13T14:39:11.035Z,19.90
2023-05-13T14:41:38.159Z,20.10
2023-05-13T14:44:05.061Z,20.00
2023-05-13T14:46:34.054Z,20.10
2023-05-13T14:49:00.934Z,20.00
2023-05-13T14:51:27.872Z,20.00
2023-05-13T14:53:54.728Z,19.90
2023-05-13T14:56:21.671Z,19.70
2023-05-13T14:58:48.672Z,19.70
2023-05-13T15:01:16.208Z,19.70
2023-05-13T15:03:43.252Z,19.60
2023-05-13T15:06:10.562Z,19.70
2023-05-13T15:08:38.415Z,19.60
2023-05-13T15:11:05.479Z,19.60
2023-05-13T15:13:35.444Z,19.60
2023-05-13T15:16:06.850Z,19.60
2023-05-13T15:18:34.125Z,19.60
2023-05-13T15:21:01.080Z,19.70
2023-05-13T15:23:27.979Z,19.60
2023-05-13T15:25:54.851Z,19.60
2023-05-13T15:28:21.744Z,19.60
2023-05-13T15:30:48.713Z,19.80
2023-05-13T15:33:15.700Z,19.70
2023-05-13T15:35:43.778Z,19.70
2023-05-13T15:38:10.997Z,19.80
2023-05-13T15:40:41.010Z,19.80
2023-05-13T15:43:07.990Z,19.80
2023-05-13T15:45:35.113Z,19.80
2023-05-13T15:48:02.114Z,19.70
2023-05-13T15:50:29.320Z,19.80
2023-05-13T15:52:56.193Z,19.60
2023-05-13T15:55:23.144Z,19.60
2023-05-13T15:57:53.304Z,19.60
2023-05-13T16:00:20.394Z,19.50
2023-05-13T16:02:48.719Z,19.60
2023-05-13T16:05:19.338Z,19.50
2023-05-13T16:07:46.374Z,19.60
2023-05-13T16:10:13.282Z,19.60
2023-05-13T16:12:40.165Z,19.70
2023-05-13T16:15:07.849Z,19.70
2023-05-13T16:17:35.944Z,19.70
2023-05-13T16:20:03.313Z,19.60
2023-05-13T16:22:33.017Z,19.70
2023-05-13T16:25:02.113Z,19.60
2023-05-13T16:27:29.808Z,19.60
2023-05-13T16:29:58.337Z,19.60
2023-05-13T16:32:25.775Z,19.70
2023-05-13T16:34:52.799Z,19.60
2023-05-13T16:37:20.774Z,19.60
2023-05-13T16:39:47.731Z,19.60
2023-05-13T16:42:14.876Z,19.70
2023-05-13T16:44:41.937Z,19.70
2023-05-13T16:47:09.383Z,19.80
2023-05-13T16:49:37.332Z,19.70
2023-05-13T16:52:05.379Z,19.80
2023-05-13T16:54:32.676Z,19.90
2023-05-13T16:56:59.792Z,19.90
2023-05-13T16:59:28.067Z,19.90
2023-05-13T17:01:55.152Z,19.90
2023-05-13T17:04:22.285Z,19.90
2023-05-13T17:06:49.230Z,19.90
2023-05-13T17:09:16.416Z,20.00
2023-05-13T17:11:43.424Z,20.00
2023-05-13T17:14:10.401Z,20.00
2023-05-13T17:16:37.765Z,20.00
2023-05-13T17:19:04.730Z,19.90
2023-05-13T17:21:31.888Z,19.90
2023-05-13T17:23:59.806Z,19.90
2023-05-13T17:26:26.714Z,19.90
2023-05-13T17:28:54.378Z,19.90
2023-05-13T17:31:22.397Z,19.90
2023-05-13T17:33:50.104Z,19.90
2023-05-13T17:36:17.191Z,19.90
2023-05-13T17:38:45.081Z,19.80
2023-05-13T17:41:12.297Z,19.90
2023-05-13T17:43:39.183Z,19.80
2023-05-13T17:46:06.124Z,19.80
2023-05-13T17:48:33.495Z,19.80
2023-05-13T17:51:00.576Z,19.80
2023-05-13T17:53:27.512Z,19.80
2023-05-13T17:55:55.100Z,19.80
2023-05-13T17:58:21.999Z,19.70
2023-05-13T18:00:49.911Z,19.60
2023-05-13T18:03:17.552Z,19.70
2023-05-13T18:05:44.629Z,19.70
2023-05-13T18:08:12.525Z,19.70
2023-05-13T18:10:39.440Z,19.70
2023-05-13T18:13:06.320Z,19.70
2023-05-13T18:15:34.118Z,19.70
2023-05-13T18:18:03.688Z,19.60
2023-05-13T18:20:31.836Z,19.60
2023-05-13T18:22:58.743Z,19.60
2023-05-13T18:25:25.750Z,19.50
2023-05-13T18:27:52.693Z,19.50
2023-05-13T18:30:19.656Z,19.60
2023-05-13T18:32:46.629Z,19.50
2023-05-13T18:35:13.546Z,19.50
2023-05-13T18:37:40.671Z,19.50
2023-05-13T18:40:08.232Z,19.40
2023-05-13T18:42:35.016Z,19.40
2023-05-13T18:45:02.082Z,19.40
2023-05-13T18:47:29.129Z,19.40
2023-05-13T18:49:55.998Z,19.30
2023-05-13T18:52:23.161Z,19.40
2023-05-13T18:54:50.017Z,19.30
2023-05-13T18:57:17.037Z,19.20
2023-05-13T18:59:44.040Z,19.30
2023-05-13T19:02:11.195Z,19.20
2023-05-13T19:07:29.009Z,19.10
2023-05-13T19:09:56.899Z,19.10
2023-05-13T19:12:23.952Z,19.00
2023-05-13T19:14:50.837Z,19.00
2023-05-13T19:17:17.924Z,18.90
2023-05-13T19:19:44.977Z,18.90
2023-05-13T19:22:11.871Z,18.80
2023-05-13T19:24:38.696Z,18.60
2023-05-13T19:27:07.672Z,18.50
2023-05-13T19:29:35.721Z,18.40
2023-05-13T19:32:02.640Z,18.40
2023-05-13T19:34:29.574Z,18.40
2023-05-13T19:36:56.524Z,18.40
2023-05-13T19:39:23.421Z,18.40
2023-05-13T19:41:50.632Z,18.30
2023-05-13T19:44:17.466Z,18.40
2023-05-13T19:46:44.449Z,18.40
2023-05-13T19:49:11.468Z,18.30
2023-05-13T19:51:38.405Z,18.40
2023-05-13T19:54:06.899Z,18.30
2023-05-13T19:56:33.770Z,18.30
2023-05-13T19:59:00.905Z,18.20
2023-05-13T20:01:28.078Z,18.20
2023-05-13T20:03:55.621Z,18.20
2023-05-13T20:06:22.572Z,18.20
2023-05-13T20:08:49.476Z,18.00
2023-05-13T20:11:16.382Z,18.00
2023-05-13T20:13:43.285Z,17.90
2023-05-13T20:16:10.879Z,17.90
2023-05-13T20:18:38.533Z,17.80
2023-05-13T20:21:06.240Z,17.70
2023-05-13T20:23:33.221Z,17.70
2023-05-13T20:26:00.151Z,17.70
2023-05-13T20:28:27.338Z,17.70
2023-05-13T20:30:54.818Z,17.50
2023-05-13T20:33:21.788Z,17.60
2023-05-13T20:35:49.262Z,17.50
2023-05-13T20:38:16.667Z,17.50
2023-05-13T20:40:43.798Z,17.40
2023-05-13T20:43:10.692Z,17.30
2023-05-13T20:45:39.771Z,17.30
2023-05-13T20:48:08.088Z,17.20
2023-05-13T20:50:36.346Z,17.20
2023-05-13T20:53:03.200Z,17.20
2023-05-13T20:55:30.123Z,17.10
2023-05-13T20:57:59.689Z,17.00
2023-05-13T21:00:26.775Z,17.10
2023-05-13T21:02:54.537Z,17.00
2023-05-13T21:05:21.910Z,17.00
2023-05-13T21:07:52.659Z,17.00
2023-05-13T21:10:20.308Z,17.00
2023-05-13T21:12:48.235Z,17.00
2023-05-13T21:15:15.522Z,17.00
2023-05-13T21:17:42.447Z,16.90
2023-05-13T21:20:11.387Z,16.80
2023-05-13T21:22:38.236Z,16.80
2023-05-13T21:25:05.747Z,16.80
2023-05-13T21:27:32.716Z,16.80
2023-05-13T21:29:59.709Z,16.80
2023-05-13T21:32:28.144Z,16.60
2023-05-13T21:34:57.643Z,16.70
2023-05-13T21:37:27.051Z,16.60
2023-05-13T21:39:53.944Z,16.70
2023-05-13T21:42:24.688Z,16.60
2023-05-13T21:44:51.879Z,16.40
2023-05-13T21:47:18.786Z,16.50
2023-05-13T21:49:45.901Z,16.70
2023-05-13T21:52:12.868Z,16.40
2023-05-13T21:54:40.093Z,16.40
2023-05-13T21:57:07.831Z,16.30
2023-05-13T21:59:35.281Z,16.30
2023-05-13T22:02:02.186Z,16.30
2023-05-13T22:04:29.164Z,16.20
2023-05-13T22:06:56.253Z,16.20
2023-05-13T22:09:23.351Z,16.20
2023-05-13T22:11:51.309Z,16.20
2023-05-13T22:14:18.267Z,16.10
2023-05-13T22:16:51.911Z,16.10
2023-05-13T22:19:24.649Z,16.00
2023-05-13T22:24:33.444Z,16.00
2023-05-13T22:27:00.402Z,16.00
2023-05-13T22:29:28.501Z,15.90
2023-05-13T22:31:58.202Z,15.90
2023-05-13T22:34:26.262Z,15.90
2023-05-13T22:36:53.070Z,15.90
2023-05-13T22:39:20.176Z,15.80
2023-05-13T22:41:47.090Z,15.80
2023-05-13T22:44:13.920Z,15.80
2023-05-13T22:46:40.828Z,15.70
2023-05-13T22:49:07.678Z,15.70
2023-05-13T22:51:34.506Z,15.70
2023-05-13T22:54:01.393Z,15.70
2023-05-13T22:56:28.225Z,15.60
2023-05-13T22:58:54.987Z,15.60
2023-05-13T23:01:21.830Z,15.60
2023-05-13T23:03:48.787Z,15.60
2023-05-13T23:06:15.724Z,15.50
2023-05-13T23:08:42.541Z,15.50
2023-05-13T23:11:11.520Z,15.40
2023-05-13T23:13:38.351Z,15.40
2023-05-13T23:16:05.428Z,15.40
2023-05-13T23:18:34.618Z,15.30
2023-05-13T23:21:02.787Z,15.30
2023-05-13T23:23:31.400Z,15.20
2023-05-13T23:25:58.339Z,15.20
2023-05-13T23:28:25.148Z,15.20
2023-05-13T23:30:55.141Z,15.20
2023-05-13T23:33:21.958Z,15.20
2023-05-13T23:35:55.311Z,15.20
2023-05-13T23:38:22.660Z,15.10
2023-05-13T23:40:49.490Z,15.10
2023-05-13T23:43:18.147Z,15.10
2023-05-13T23:45:46.291Z,15.00
2023-05-13T23:48:13.178Z,15.10
2023-05-13T23:50:41.697Z,15.00
2023-05-13T23:53:08.941Z,15.10
2023-05-13T23:55:36.324Z,15.00
2023-05-13T23:58:05.010Z,15.00
